Time;durP1;ratioP1;P1;durP2;ratioP2;P2;SDS_P1;SDS_P2;PMS_P1;PMS_P2;Temp;Humidity;BMP_temperature;BMP_pressure;BME280_temperature;BME280_humidity;BME280_pressure;Samples;Min_cycle;Max_cycle;Signal;HPM_P1;HPM_P2
2023/01/02 00:00:19;;;;;;;;;;;0.40;99.90;;;;;;5096527;28;19912;-75
2023/01/02 00:02:45;;;;;;;;;;;0.40;99.90;;;;;;5096404;28;19915;-75
2023/01/02 00:05:11;;;;;;;;;;;0.40;99.90;;;;;;5078294;28;19913;-75
2023/01/02 00:07:36;;;;;;;;;;;0.30;99.90;;;;;;5078120;28;19908;-75
2023/01/02 00:10:02;;;;;;;;;;;0.30;99.90;;;;;;5096266;28;19916;-75
2023/01/02 00:12:28;;;;;;;;;;;0.30;99.90;;;;;;5095862;28;19914;-76
2023/01/02 00:14:53;;;;;;;;;;;0.30;99.90;;;;;;5078197;28;20018;-75
2023/01/02 00:17:19;;;;;;;;;;;0.40;99.90;;;;;;5096035;28;19916;-75
2023/01/02 00:19:45;;;;;;;;;;;0.30;99.90;;;;;;5096879;28;19912;-75
2023/01/02 00:22:10;;;;;;;;;;;0.40;99.90;;;;;;5096164;28;19919;-75
2023/01/02 00:24:36;;;;;;;;;;;0.40;99.90;;;;;;5096323;28;20287;-75
2023/01/02 00:27:01;;;;;;;;;;;0.40;99.90;;;;;;5078107;28;19956;-75
2023/01/02 00:29:27;;;;;;;;;;;0.40;99.90;;;;;;5096519;28;19919;-75
2023/01/02 00:31:53;;;;;;;;;;;0.40;99.90;;;;;;5095896;28;20368;-76
2023/01/02 00:34:18;;;;;;;;;;;0.40;99.90;;;;;;5095852;28;19977;-75
2023/01/02 00:36:44;;;;;;;;;;;0.40;99.90;;;;;;5095516;28;19926;-75
2023/01/02 00:39:09;;;;;;;;;;;0.30;99.90;;;;;;5095742;28;19919;-75
2023/01/02 00:41:35;;;;;;;;;;;0.30;99.90;;;;;;5096004;28;19908;-75
2023/01/02 00:44:00;;;;;;;;;;;0.30;99.90;;;;;;5077612;28;19919;-75
2023/01/02 00:46:26;;;;;;;;;;;0.30;99.90;;;;;;5077404;28;20370;-76
2023/01/02 00:48:51;;;;;;;;;;;0.20;99.90;;;;;;5060736;28;19939;-76
2023/01/02 00:51:17;;;;;;;;;;;0.20;99.90;;;;;;5095493;28;19935;-76
2023/01/02 00:53:43;;;;;;;;;;;0.10;99.90;;;;;;5095435;28;19912;-76
2023/01/02 00:56:08;;;;;;;;;;;0.10;99.90;;;;;;5095425;28;20060;-76
2023/01/02 00:58:34;;;;;;;;;;;0.10;99.90;;;;;;5077320;28;20444;-75
2023/01/02 01:01:00;;;;;;;;;;;0.10;99.90;;;;;;5095898;28;19916;-76
2023/01/02 01:03:25;;;;;;;;;;;0.10;99.90;;;;;;5095290;28;19912;-76
2023/01/02 01:05:51;;;;;;;;;;;0.10;99.90;;;;;;5095544;28;19912;-75
2023/01/02 01:08:17;;;;;;;;;;;0.10;99.90;;;;;;5076911;28;20383;-75
2023/01/02 01:10:42;;;;;;;;;;;0.10;99.90;;;;;;5095108;28;20336;-75
2023/01/02 01:13:08;;;;;;;;;;;0.00;99.90;;;;;;5095341;28;20011;-75
2023/01/02 01:15:33;;;;;;;;;;;0.10;99.90;;;;;;5095063;28;19934;-75
2023/01/02 01:17:59;;;;;;;;;;;0.10;99.90;;;;;;5094791;28;19965;-76
2023/01/02 01:20:25;;;;;;;;;;;0.10;99.90;;;;;;5076910;28;19912;-76
2023/01/02 01:22:50;;;;;;;;;;;0.00;99.90;;;;;;5075731;28;20463;-75
2023/01/02 01:25:16;;;;;;;;;;;0.00;99.90;;;;;;5094672;28;19931;-74
2023/01/02 01:27:42;;;;;;;;;;;0.00;99.90;;;;;;5094895;28;19912;-75
2023/01/02 01:30:07;;;;;;;;;;;0.00;99.90;;;;;;5094795;28;20022;-75
2023/01/02 01:32:33;;;;;;;;;;;0.00;99.90;;;;;;5094751;28;20360;-75
2023/01/02 01:34:59;;;;;;;;;;;0.00;99.90;;;;;;5094637;28;19912;-75
2023/01/02 01:37:24;;;;;;;;;;;-0.10;99.90;;;;;;5094369;28;19927;-75
2023/01/02 01:39:50;;;;;;;;;;;0.00;99.90;;;;;;5095281;28;19965;-75
2023/01/02 01:42:17;;;;;;;;;;;-0.10;99.90;;;;;;5059656;28;19957;-75
2023/01/02 01:44:47;;;;;;;;;;;-0.10;99.90;;;;;;5094496;28;19914;-75
2023/01/02 01:47:24;;;;;;;;;;;-0.10;99.90;;;;;;5094357;28;19918;-75
2023/01/02 01:50:00;;;;;;;;;;;-0.10;99.90;;;;;;5094442;28;19915;-75
2023/01/02 01:52:27;;;;;;;;;;;-0.10;99.90;;;;;;5094942;28;20041;-75
2023/01/02 01:55:04;;;;;;;;;;;-0.10;99.90;;;;;;5094284;28;19909;-75
2023/01/02 01:57:32;;;;;;;;;;;-0.10;99.90;;;;;;5094455;28;19912;-75
2023/01/02 01:59:58;;;;;;;;;;;-0.10;99.90;;;;;;5094491;28;19915;-75
2023/01/02 02:02:25;;;;;;;;;;;-0.10;99.90;;;;;;5094187;28;19919;-75
2023/01/02 02:04:51;;;;;;;;;;;-0.10;99.90;;;;;;5094813;28;19908;-75
2023/01/02 02:07:16;;;;;;;;;;;-0.10;99.90;;;;;;5094445;28;19908;-75
2023/01/02 02:09:55;;;;;;;;;;;-0.10;99.90;;;;;;5094447;28;19966;-75
2023/01/02 02:12:21;;;;;;;;;;;-0.20;99.90;;;;;;5094200;28;20002;-75
2023/01/02 02:14:46;;;;;;;;;;;-0.20;99.90;;;;;;5094142;28;19908;-75
2023/01/02 02:17:12;;;;;;;;;;;-0.20;99.90;;;;;;5093916;28;20294;-75
2023/01/02 02:19:41;;;;;;;;;;;-0.20;99.90;;;;;;5093926;28;19908;-75
2023/01/02 02:22:15;;;;;;;;;;;-0.20;99.90;;;;;;5094555;28;19915;-75
2023/01/02 02:24:59;;;;;;;;;;;-0.20;99.90;;;;;;5075827;28;20307;-75
2023/01/02 02:27:28;;;;;;;;;;;-0.20;99.90;;;;;;5093880;28;19999;-75
2023/01/02 02:29:56;;;;;;;;;;;-0.30;99.90;;;;;;5093868;28;19915;-75
2023/01/02 02:32:21;;;;;;;;;;;-0.20;99.90;;;;;;5094048;28;19915;-75
2023/01/02 02:35:07;;;;;;;;;;;-0.20;99.90;;;;;;5096066;28;20003;-75
2023/01/02 02:37:51;;;;;;;;;;;-0.30;99.90;;;;;;5097027;28;19923;-75
2023/01/02 02:40:20;;;;;;;;;;;-0.30;99.90;;;;;;5098310;28;19912;-75
2023/01/02 02:42:45;;;;;;;;;;;-0.30;99.90;;;;;;5098216;28;19915;-75
2023/01/02 02:45:11;;;;;;;;;;;-0.30;99.90;;;;;;5098031;28;20368;-75
2023/01/02 02:47:55;;;;;;;;;;;-0.30;99.90;;;;;;5097889;28;19908;-75
2023/01/02 02:50:32;;;;;;;;;;;-0.30;99.90;;;;;;5097778;28;19915;-75
2023/01/02 02:53:05;;;;;;;;;;;-0.40;99.90;;;;;;5098126;28;19908;-75
2023/01/02 02:55:39;;;;;;;;;;;-0.40;99.90;;;;;;5097803;28;19947;-75
2023/01/02 02:58:05;;;;;;;;;;;-0.40;99.90;;;;;;5079449;28;20330;-75
2023/01/02 03:00:30;;;;;;;;;;;-0.40;99.90;;;;;;5097703;28;19912;-74
2023/01/02 03:02:56;;;;;;;;;;;-0.40;99.90;;;;;;5097598;28;19912;-75
2023/01/02 03:05:28;;;;;;;;;;;-0.50;99.90;;;;;;5097498;28;19981;-75
2023/01/02 03:07:57;;;;;;;;;;;-0.50;99.90;;;;;;5097548;28;19908;-75
2023/01/02 03:10:33;;;;;;;;;;;-0.60;99.90;;;;;;5097449;28;19916;-75
2023/01/02 03:13:04;;;;;;;;;;;-0.60;99.90;;;;;;5097463;28;19909;-75
2023/01/02 03:15:39;;;;;;;;;;;-0.50;99.90;;;;;;5097326;28;19908;-74
2023/01/02 03:18:17;;;;;;;;;;;-0.50;99.90;;;;;;5097197;28;20368;-75
2023/01/02 03:20:57;;;;;;;;;;;-0.50;99.90;;;;;;5097558;28;20392;-75
2023/01/02 03:23:23;;;;;;;;;;;-0.60;99.90;;;;;;5097572;28;19919;-75
2023/01/02 03:25:50;;;;;;;;;;;-0.60;99.90;;;;;;5097212;28;20368;-75
2023/01/02 03:28:18;;;;;;;;;;;-0.60;99.90;;;;;;5078939;28;19995;-75
2023/01/02 03:30:46;;;;;;;;;;;-0.60;99.90;;;;;;5097410;28;19909;-75
2023/01/02 03:33:23;;;;;;;;;;;-0.60;99.90;;;;;;5097039;28;19908;-75
2023/01/02 03:35:49;;;;;;;;;;;-0.60;99.90;;;;;;5078746;28;19911;-75
2023/01/02 03:38:18;;;;;;;;;;;-0.60;99.90;;;;;;5096648;28;19978;-75
2023/01/02 03:40:47;;;;;;;;;;;-0.60;99.90;;;;;;5096790;28;19908;-75
2023/01/02 03:43:18;;;;;;;;;;;-0.60;99.90;;;;;;5078630;28;19998;-75
2023/01/02 03:45:53;;;;;;;;;;;-0.60;99.90;;;;;;5095936;28;20380;-75
2023/01/02 03:48:19;;;;;;;;;;;-0.60;99.90;;;;;;5096678;28;19908;-75
2023/01/02 03:50:47;;;;;;;;;;;-0.60;99.90;;;;;;5096657;28;19916;-75
2023/01/02 03:53:13;;;;;;;;;;;-0.70;99.90;;;;;;5096970;28;19908;-75
2023/01/02 03:55:41;;;;;;;;;;;-0.70;99.90;;;;;;5096870;28;19973;-75
2023/01/02 03:58:07;;;;;;;;;;;-0.70;99.90;;;;;;5096491;28;20406;-75
2023/01/02 04:00:45;;;;;;;;;;;-0.70;99.90;;;;;;5096543;28;19909;-74
2023/01/02 04:03:18;;;;;;;;;;;-0.70;99.90;;;;;;5096826;28;19908;-75
2023/01/02 04:05:46;;;;;;;;;;;-0.70;99.90;;;;;;5096769;28;19995;-75
2023/01/02 04:08:23;;;;;;;;;;;-0.70;99.90;;;;;;5096319;28;19912;-75
2023/01/02 04:10:50;;;;;;;;;;;-0.70;99.90;;;;;;5096579;28;19930;-75
2023/01/02 04:13:18;;;;;;;;;;;-0.70;99.90;;;;;;5096220;28;20307;-75
2023/01/02 04:15:45;;;;;;;;;;;-0.70;99.90;;;;;;5096222;28;20096;-75
2023/01/02 04:18:13;;;;;;;;;;;-0.70;99.90;;;;;;5096026;28;19916;-75
2023/01/02 04:20:40;;;;;;;;;;;-0.60;99.90;;;;;;5077886;28;19951;-75
2023/01/02 04:23:12;;;;;;;;;;;-0.70;99.90;;;;;;5096115;28;20380;-75
2023/01/02 04:25:46;;;;;;;;;;;-0.70;99.90;;;;;;5077871;28;19908;-75
2023/01/02 04:28:31;;;;;;;;;;;-0.70;99.90;;;;;;5095863;28;19919;-75
2023/01/02 04:31:04;;;;;;;;;;;-0.70;99.90;;;;;;5095984;28;19908;-75
2023/01/02 04:33:32;;;;;;;;;;;-0.70;99.90;;;;;;5095929;28;20284;-75
2023/01/02 04:36:05;;;;;;;;;;;-0.70;99.90;;;;;;5095698;28;20009;-76
2023/01/02 04:38:31;;;;;;;;;;;-0.80;99.90;;;;;;5096011;28;19915;-75
2023/01/02 04:40:56;;;;;;;;;;;-0.80;99.90;;;;;;5096111;28;19913;-75
2023/01/02 04:43:22;;;;;;;;;;;-0.80;99.90;;;;;;5077812;28;20368;-75
2023/01/02 04:45:48;;;;;;;;;;;-0.80;99.90;;;;;;5077673;28;19913;-75
2023/01/02 04:48:13;;;;;;;;;;;-0.80;99.90;;;;;;5095559;28;19964;-75
2023/01/02 04:50:39;;;;;;;;;;;-0.80;99.90;;;;;;5095568;28;20010;-75
2023/01/02 04:53:04;;;;;;;;;;;-0.80;99.90;;;;;;5095482;28;19915;-75
2023/01/02 04:55:30;;;;;;;;;;;-0.80;99.90;;;;;;5095412;28;19951;-75
2023/01/02 04:57:56;;;;;;;;;;;-0.90;99.90;;;;;;5095045;28;19923;-75
2023/01/02 05:00:22;;;;;;;;;;;-0.90;99.90;;;;;;5095435;28;19919;-75
2023/01/02 05:02:47;;;;;;;;;;;-0.80;99.90;;;;;;5095636;28;19908;-75
2023/01/02 05:05:13;;;;;;;;;;;-0.80;99.90;;;;;;5095519;28;19912;-75
2023/01/02 05:07:38;;;;;;;;;;;-0.80;99.90;;;;;;5095152;28;19913;-75
2023/01/02 05:10:05;;;;;;;;;;;-0.80;99.90;;;;;;5076959;28;20415;-75
2023/01/02 05:12:34;;;;;;;;;;;-0.80;99.90;;;;;;5076833;28;19908;-75
2023/01/02 05:15:00;;;;;;;;;;;-0.80;99.90;;;;;;5095420;28;19930;-75
2023/01/02 05:17:25;;;;;;;;;;;-0.80;99.90;;;;;;5076724;28;19917;-75
2023/01/02 05:19:51;;;;;;;;;;;-0.90;99.90;;;;;;5094990;28;19916;-75
2023/01/02 05:25:00;;;;;;;;;;;-0.90;99.90;;;;;;5095498;28;19918;-75
2023/01/02 05:27:26;;;;;;;;;;;-0.90;99.90;;;;;;5076557;28;20018;-75
2023/01/02 05:29:52;;;;;;;;;;;-0.90;99.90;;;;;;5076622;28;19938;-75
2023/01/02 05:32:17;;;;;;;;;;;-0.90;99.90;;;;;;5076622;28;19938;-75
2023/01/02 05:34:43;;;;;;;;;;;-0.90;99.90;;;;;;5094717;28;20022;-75
2023/01/02 05:37:08;;;;;;;;;;;-1.00;99.90;;;;;;5094397;28;19943;-75
2023/01/02 05:39:34;;;;;;;;;;;-0.90;99.90;;;;;;5094509;28;19935;-75
2023/01/02 05:41:59;;;;;;;;;;;-0.90;99.90;;;;;;5094635;28;20353;-75
2023/01/02 05:44:25;;;;;;;;;;;-0.90;99.90;;;;;;5094514;28;19913;-75
2023/01/02 05:46:52;;;;;;;;;;;-0.90;99.90;;;;;;5076331;28;20014;-75
2023/01/02 05:49:17;;;;;;;;;;;-0.90;99.90;;;;;;5094483;28;19908;-75
2023/01/02 05:51:43;;;;;;;;;;;-0.90;99.90;;;;;;5076394;28;19918;-75
2023/01/02 05:54:08;;;;;;;;;;;-0.90;99.90;;;;;;5094399;28;19919;-75
2023/01/02 05:56:34;;;;;;;;;;;-0.90;99.90;;;;;;5094330;28;20356;-75
2023/01/02 05:58:59;;;;;;;;;;;-0.90;99.90;;;;;;5076262;28;19916;-75
2023/01/02 06:01:27;;;;;;;;;;;-0.90;99.90;;;;;;5076146;28;20417;-75
2023/01/02 06:03:54;;;;;;;;;;;-1.00;99.90;;;;;;5094207;28;20256;-75
2023/01/02 06:06:20;;;;;;;;;;;-1.00;99.90;;;;;;5094604;28;19912;-75
2023/01/02 06:08:46;;;;;;;;;;;-1.00;99.90;;;;;;5093599;28;19961;-75
2023/01/02 06:11:12;;;;;;;;;;;-1.00;99.90;;;;;;5094173;28;19916;-74
2023/01/02 06:13:38;;;;;;;;;;;-1.00;99.90;;;;;;5094341;28;19908;-75
2023/01/02 06:16:04;;;;;;;;;;;-1.00;99.90;;;;;;5093998;28;19951;-75
2023/01/02 06:18:30;;;;;;;;;;;-1.00;99.90;;;;;;5093910;28;19919;-75
2023/01/02 06:20:57;;;;;;;;;;;-1.10;99.90;;;;;;5075924;28;19938;-75
2023/01/02 06:23:23;;;;;;;;;;;-1.10;99.90;;;;;;5093917;28;19916;-75
2023/01/02 06:25:48;;;;;;;;;;;-1.10;99.90;;;;;;5075750;28;19916;-75
2023/01/02 06:28:14;;;;;;;;;;;-1.10;99.90;;;;;;5094627;28;19913;-75
2023/01/02 06:30:39;;;;;;;;;;;-1.10;99.90;;;;;;5093868;28;19938;-74
2023/01/02 06:33:05;;;;;;;;;;;-1.10;99.90;;;;;;5074858;28;19920;-74
2023/01/02 06:35:30;;;;;;;;;;;-1.10;99.90;;;;;;5093314;28;20360;-74
2023/01/02 06:37:56;;;;;;;;;;;-1.10;99.90;;;;;;5093491;28;19935;-74
2023/01/02 06:40:22;;;;;;;;;;;-1.10;99.90;;;;;;5074766;28;19912;-74
2023/01/02 06:42:48;;;;;;;;;;;-1.10;99.90;;;;;;5093223;28;19978;-75
2023/01/02 06:45:14;;;;;;;;;;;-1.10;99.90;;;;;;5064304;28;20372;-75
2023/01/02 06:47:39;;;;;;;;;;;-1.10;99.90;;;;;;5071297;28;19908;-75
2023/01/02 06:50:05;;;;;;;;;;;-1.10;99.90;;;;;;5093444;28;20296;-75
2023/01/02 06:52:31;;;;;;;;;;;-1.10;99.90;;;;;;5092620;28;19913;-75
2023/01/02 06:54:56;;;;;;;;;;;-1.10;99.90;;;;;;5093168;28;20368;-74
2023/01/02 06:57:22;;;;;;;;;;;-1.10;99.90;;;;;;5093240;28;19986;-75
2023/01/02 06:59:47;;;;;;;;;;;-1.10;99.90;;;;;;5093481;28;19923;-75
2023/01/02 07:02:13;;;;;;;;;;;-1.10;99.90;;;;;;5093361;28;19912;-75
2023/01/02 07:04:39;;;;;;;;;;;-1.10;99.90;;;;;;5093416;28;20303;-75
2023/01/02 07:07:05;;;;;;;;;;;-1.10;99.90;;;;;;5093295;28;19908;-75
2023/01/02 07:09:31;;;;;;;;;;;-1.20;99.90;;;;;;5073415;28;19908;-75
2023/01/02 07:11:57;;;;;;;;;;;-1.20;99.90;;;;;;5093519;28;19927;-75
2023/01/02 07:14:23;;;;;;;;;;;-1.20;99.90;;;;;;5093426;28;20003;-75
2023/01/02 07:16:48;;;;;;;;;;;-1.20;99.90;;;;;;5093062;28;19942;-75
2023/01/02 07:19:14;;;;;;;;;;;-1.20;99.90;;;;;;5093377;28;20340;-75
2023/01/02 07:21:40;;;;;;;;;;;-1.30;99.90;;;;;;5078845;28;19912;-75
2023/01/02 07:24:05;;;;;;;;;;;-1.30;99.90;;;;;;5097088;28;19913;-75
2023/01/02 07:26:31;;;;;;;;;;;-1.30;99.90;;;;;;5096659;28;20292;-75
2023/01/02 07:28:56;;;;;;;;;;;-1.30;99.90;;;;;;5097006;28;20331;-75
2023/01/02 07:31:22;;;;;;;;;;;-1.20;99.90;;;;;;5096644;28;19962;-75
2023/01/02 07:33:48;;;;;;;;;;;-1.20;99.90;;;;;;5096770;28;19912;-75
2023/01/02 07:36:15;;;;;;;;;;;-1.20;99.90;;;;;;5076526;28;19972;-75
2023/01/02 07:38:41;;;;;;;;;;;-1.20;99.90;;;;;;5078873;28;19912;-75
2023/01/02 07:41:17;;;;;;;;;;;-1.30;99.90;;;;;;5077285;28;20030;-75
2023/01/02 07:43:43;;;;;;;;;;;-1.30;99.90;;;;;;5096664;28;20294;-75
2023/01/02 07:46:09;;;;;;;;;;;-1.30;99.90;;;;;;5096523;28;19915;-75
2023/01/02 07:48:34;;;;;;;;;;;-1.30;99.90;;;;;;5096534;28;19912;-76
2023/01/02 07:51:04;;;;;;;;;;;-1.30;99.90;;;;;;5096785;28;19912;-75
2023/01/02 07:53:30;;;;;;;;;;;-1.30;99.90;;;;;;5096613;28;19908;-74
2023/01/02 07:55:56;;;;;;;;;;;-1.30;99.90;;;;;;5095973;28;20474;-74
2023/01/02 07:58:22;;;;;;;;;;;-1.30;99.90;;;;;;5095800;28;19916;-74
2023/01/02 08:00:47;;;;;;;;;;;-1.30;99.90;;;;;;5077709;28;19914;-74
2023/01/02 08:03:13;;;;;;;;;;;-1.20;99.90;;;;;;5095894;28;19912;-74
2023/01/02 08:05:39;;;;;;;;;;;-1.20;99.90;;;;;;5096421;28;19916;-75
2023/01/02 08:08:04;;;;;;;;;;;-1.20;99.90;;;;;;5078232;28;19912;-75
2023/01/02 08:10:30;;;;;;;;;;;-1.10;99.90;;;;;;5096278;28;19908;-75
2023/01/02 08:12:58;;;;;;;;;;;-1.10;99.90;;;;;;5096312;28;19923;-75
2023/01/02 08:15:24;;;;;;;;;;;-1.10;99.90;;;;;;5078111;28;19920;-74
2023/01/02 08:17:50;;;;;;;;;;;-1.10;99.90;;;;;;5096133;28;19920;-74
2023/01/02 08:20:16;;;;;;;;;;;-1.10;99.90;;;;;;5077943;28;20411;-74
2023/01/02 08:22:41;;;;;;;;;;;-1.00;99.90;;;;;;5096091;28;19915;-75
2023/01/02 08:25:07;;;;;;;;;;;-1.00;99.90;;;;;;5096373;28;19939;-75
2023/01/02 08:27:33;;;;;;;;;;;-1.00;99.90;;;;;;5095950;28;19957;-75
2023/01/02 08:29:59;;;;;;;;;;;-0.90;99.90;;;;;;5077748;28;19912;-74
2023/01/02 08:32:24;;;;;;;;;;;-0.80;99.90;;;;;;5095441;28;20376;-75
2023/01/02 08:34:50;;;;;;;;;;;-0.80;99.90;;;;;;5095932;28;19948;-75
2023/01/02 08:37:15;;;;;;;;;;;-0.70;99.90;;;;;;5077666;28;20447;-74
2023/01/02 08:39:41;;;;;;;;;;;-0.60;99.90;;;;;;5095770;28;20335;-75
2023/01/02 08:42:07;;;;;;;;;;;-0.50;99.90;;;;;;5077606;28;19967;-75
2023/01/02 08:44:33;;;;;;;;;;;-0.50;99.90;;;;;;5095707;28;19966;-75
2023/01/02 08:46:58;;;;;;;;;;;-0.40;99.90;;;;;;5095581;28;20275;-75
2023/01/02 08:49:24;;;;;;;;;;;-0.30;99.90;;;;;;5095920;28;19920;-75
2023/01/02 08:51:49;;;;;;;;;;;-0.20;99.90;;;;;;5095543;28;19999;-75
2023/01/02 08:54:15;;;;;;;;;;;-0.20;99.90;;;;;;5095489;28;19927;-75
2023/01/02 08:56:41;;;;;;;;;;;-0.10;99.90;;;;;;5095404;28;19951;-75
2023/01/02 08:59:10;;;;;;;;;;;-0.10;99.90;;;;;;5077206;28;19952;-75
2023/01/02 09:01:37;;;;;;;;;;;-0.10;99.90;;;;;;5095306;28;19908;-75
2023/01/02 09:04:03;;;;;;;;;;;0.00;99.90;;;;;;5095320;28;20314;-74
2023/01/02 09:06:30;;;;;;;;;;;0.00;99.90;;;;;;5095123;28;19999;-75
2023/01/02 09:08:56;;;;;;;;;;;0.00;99.90;;;;;;5077395;28;20014;-75
2023/01/02 09:11:24;;;;;;;;;;;0.10;99.90;;;;;;5095173;28;19958;-74
2023/01/02 09:13:50;;;;;;;;;;;0.20;99.90;;;;;;5095178;28;19994;-75
2023/01/02 09:16:15;;;;;;;;;;;0.30;99.90;;;;;;5076872;28;19923;-75
2023/01/02 09:18:41;;;;;;;;;;;0.40;99.90;;;;;;5094931;28;19912;-75
2023/01/02 09:21:07;;;;;;;;;;;0.40;99.90;;;;;;5094969;28;19918;-75
2023/01/02 09:23:32;;;;;;;;;;;0.50;99.90;;;;;;5076646;28;19982;-74
2023/01/02 09:25:59;;;;;;;;;;;0.60;99.90;;;;;;5076793;28;19919;-75
2023/01/02 09:28:25;;;;;;;;;;;0.70;99.90;;;;;;5076943;28;19908;-75
2023/01/02 09:30:50;;;;;;;;;;;0.90;99.90;;;;;;5095131;28;19953;-75
2023/01/02 09:33:16;;;;;;;;;;;0.90;99.90;;;;;;5094820;28;19999;-75
2023/01/02 09:35:42;;;;;;;;;;;1.00;99.90;;;;;;5077001;28;19920;-75
2023/01/02 09:38:07;;;;;;;;;;;1.10;99.90;;;;;;5094496;28;20322;-75
2023/01/02 09:40:34;;;;;;;;;;;1.20;99.90;;;;;;5059817;28;19918;-75
2023/01/02 09:43:00;;;;;;;;;;;1.30;99.90;;;;;;5076436;28;19962;-75
2023/01/02 09:45:25;;;;;;;;;;;1.40;99.90;;;;;;5093979;28;19916;-75
2023/01/02 09:47:52;;;;;;;;;;;1.50;99.90;;;;;;5094461;28;19923;-76
2023/01/02 09:50:23;;;;;;;;;;;1.60;99.90;;;;;;5094419;28;19955;-75
2023/01/02 09:52:53;;;;;;;;;;;1.70;99.90;;;;;;5094992;28;19931;-75
2023/01/02 09:55:24;;;;;;;;;;;1.80;99.90;;;;;;5094697;28;19912;-76
2023/01/02 09:58:01;;;;;;;;;;;2.00;99.90;;;;;;5094244;28;19959;-76
2023/01/02 10:00:28;;;;;;;;;;;2.10;99.90;;;;;;5094601;28;19908;-75
2023/01/02 10:02:59;;;;;;;;;;;2.20;99.90;;;;;;5076478;28;20388;-75
2023/01/02 10:05:36;;;;;;;;;;;2.30;99.90;;;;;;5076223;28;19968;-76
2023/01/02 10:08:20;;;;;;;;;;;2.40;99.90;;;;;;5094016;28;19930;-76
2023/01/02 10:10:49;;;;;;;;;;;2.50;99.90;;;;;;5094161;28;19951;-76
2023/01/02 10:13:23;;;;;;;;;;;2.60;99.90;;;;;;5094086;28;19915;-75
2023/01/02 10:15:51;;;;;;;;;;;2.70;99.90;;;;;;5094376;28;20303;-75
2023/01/02 10:18:29;;;;;;;;;;;2.80;99.90;;;;;;5075823;28;19912;-76
2023/01/02 10:20:57;;;;;;;;;;;2.90;99.90;;;;;;5094742;28;20327;-75
2023/01/02 10:23:25;;;;;;;;;;;3.00;99.90;;;;;;5076035;28;20003;-75
2023/01/02 10:25:57;;;;;;;;;;;3.10;99.90;;;;;;5094019;28;19912;-77
2023/01/02 10:28:36;;;;;;;;;;;3.10;99.90;;;;;;5094183;28;19912;-76
2023/01/02 10:31:16;;;;;;;;;;;3.20;99.90;;;;;;5093918;28;19908;-76
2023/01/02 10:33:42;;;;;;;;;;;3.30;99.90;;;;;;5093872;28;19915;-76
2023/01/02 10:36:12;;;;;;;;;;;3.40;99.90;;;;;;5092672;28;19916;-76
2023/01/02 10:38:38;;;;;;;;;;;3.50;99.90;;;;;;5075222;28;19954;-76
2023/01/02 10:41:04;;;;;;;;;;;3.60;99.90;;;;;;5093785;28;19908;-76
2023/01/02 10:43:33;;;;;;;;;;;3.60;99.90;;;;;;5093796;28;19952;-76
2023/01/02 10:46:00;;;;;;;;;;;3.70;99.90;;;;;;5093705;28;20406;-76
2023/01/02 10:48:27;;;;;;;;;;;3.80;99.90;;;;;;5075621;28;19912;-76
2023/01/02 10:50:55;;;;;;;;;;;3.90;99.90;;;;;;5093930;28;19916;-77
2023/01/02 10:53:32;;;;;;;;;;;4.00;99.90;;;;;;5075641;28;19908;-76
2023/01/02 10:56:04;;;;;;;;;;;4.20;99.90;;;;;;5077953;28;19909;-76
2023/01/02 10:58:32;;;;;;;;;;;4.30;99.90;;;;;;5079523;28;19919;-76
2023/01/02 11:01:03;;;;;;;;;;;4.50;99.90;;;;;;5098015;28;19915;-76
2023/01/02 11:03:29;;;;;;;;;;;4.60;99.90;;;;;;5098283;28;19908;-76
2023/01/02 11:05:56;;;;;;;;;;;4.70;99.90;;;;;;5097643;28;20327;-76
2023/01/02 11:08:23;;;;;;;;;;;4.70;99.90;;;;;;5098044;28;19904;-77
2023/01/02 11:10:49;;;;;;;;;;;4.80;99.90;;;;;;5097547;28;19908;-76
2023/01/02 11:13:16;;;;;;;;;;;4.90;99.90;;;;;;5097324;28;20278;-77
2023/01/02 11:15:45;;;;;;;;;;;4.90;99.90;;;;;;5097653;28;20071;-77
2023/01/02 11:18:16;;;;;;;;;;;5.00;99.90;;;;;;5098675;28;19919;-77
2023/01/02 11:20:46;;;;;;;;;;;5.00;99.90;;;;;;5097514;28;19908;-78
2023/01/02 11:23:12;;;;;;;;;;;5.10;99.90;;;;;;5097780;28;19915;-78
2023/01/02 11:25:39;;;;;;;;;;;5.20;99.90;;;;;;5096313;28;19916;-77
2023/01/02 11:28:05;;;;;;;;;;;5.20;99.90;;;;;;5098473;28;19959;-78
2023/01/02 11:30:50;;;;;;;;;;;5.30;99.90;;;;;;5098879;28;19908;-77
2023/01/02 11:33:34;;;;;;;;;;;5.40;99.90;;;;;;5082923;28;19908;-78
2023/01/02 11:36:03;;;;;;;;;;;5.50;99.90;;;;;;5081433;28;20308;-79
2023/01/02 11:38:44;;;;;;;;;;;5.60;99.90;;;;;;5082932;28;19920;-78
2023/01/02 11:41:18;;;;;;;;;;;5.70;99.90;;;;;;5083648;28;19912;-78
2023/01/02 11:43:47;;;;;;;;;;;5.80;99.90;;;;;;5084404;28;19909;-78
2023/01/02 11:46:33;;;;;;;;;;;5.90;99.90;;;;;;5083937;28;19983;-78
2023/01/02 11:49:02;;;;;;;;;;;6.00;99.90;;;;;;5100317;28;19908;-78
2023/01/02 11:51:28;;;;;;;;;;;6.10;99.90;;;;;;5085273;28;19908;-79
2023/01/02 11:53:56;;;;;;;;;;;6.10;99.90;;;;;;5084699;28;19952;-78
2023/01/02 11:56:31;;;;;;;;;;;6.20;99.90;;;;;;5100879;28;19908;-78
2023/01/02 11:59:00;;;;;;;;;;;6.30;99.90;;;;;;5083111;28;19919;-78
2023/01/02 12:01:29;;;;;;;;;;;6.40;99.90;;;;;;5099314;28;19916;-78
2023/01/02 12:03:55;;;;;;;;;;;6.40;99.90;;;;;;5082184;28;20271;-78
2023/01/02 12:06:31;;;;;;;;;;;6.60;99.90;;;;;;5066724;28;19912;-78
2023/01/02 12:09:15;;;;;;;;;;;6.60;99.90;;;;;;5102182;28;19995;-78
2023/01/02 12:11:47;;;;;;;;;;;6.70;99.90;;;;;;5082550;28;19923;-78
2023/01/02 12:14:21;;;;;;;;;;;6.70;99.90;;;;;;5083018;28;20384;-78
2023/01/02 12:17:05;;;;;;;;;;;6.80;99.90;;;;;;5083279;28;19908;-78
2023/01/02 12:19:30;;;;;;;;;;;6.90;99.90;;;;;;5083456;28;19955;-79
2023/01/02 12:21:56;;;;;;;;;;;6.90;99.90;;;;;;5102077;28;19954;-78
2023/01/02 12:24:28;;;;;;;;;;;6.90;99.90;;;;;;5082947;28;20264;-78
2023/01/02 12:26:56;;;;;;;;;;;7.00;99.90;;;;;;5083213;28;19908;-78
2023/01/02 12:29:37;;;;;;;;;;;7.20;99.90;;;;;;5082765;28;19908;-78
2023/01/02 12:32:08;;;;;;;;;;;7.30;99.90;;;;;;5083763;28;19912;-78
2023/01/02 12:34:49;;;;;;;;;;;7.30;99.90;;;;;;5084867;28;19908;-78
2023/01/02 12:37:15;;;;;;;;;;;7.50;99.90;;;;;;5084886;28;19916;-78
2023/01/02 12:39:48;;;;;;;;;;;7.70;99.90;;;;;;5084368;28;19958;-79
2023/01/02 12:42:14;;;;;;;;;;;7.80;99.90;;;;;;5080521;28;19931;-78
2023/01/02 12:44:40;;;;;;;;;;;7.80;99.90;;;;;;5098287;28;20352;-78
2023/01/02 12:47:24;;;;;;;;;;;7.90;99.90;;;;;;5098359;28;19975;-78
2023/01/02 12:49:59;;;;;;;;;;;8.10;99.90;;;;;;5081141;28;19908;-78
2023/01/02 12:53:00;;;;;;;;;;;8.10;99.90;;;;;;5080822;28;19915;-78
2023/01/02 12:55:35;;;;;;;;;;;8.20;99.90;;;;;;5037574;28;19931;-78
2023/01/02 12:58:16;;;;;;;;;;;8.30;99.90;;;;;;5090261;28;19919;-76
2023/01/02 13:00:49;;;;;;;;;;;8.50;99.90;;;;;;5096583;28;19915;-78
2023/01/02 13:03:28;;;;;;;;;;;8.60;99.90;;;;;;5082453;28;19940;-79
2023/01/02 13:06:06;;;;;;;;;;;8.70;99.90;;;;;;5100395;28;19954;-77
2023/01/02 13:08:40;;;;;;;;;;;8.80;99.90;;;;;;5098445;28;19950;-79
2023/01/02 13:11:06;;;;;;;;;;;8.90;99.90;;;;;;5098817;28;19976;-78
2023/01/02 13:13:34;;;;;;;;;;;9.10;99.90;;;;;;5065219;28;20014;-78
2023/01/02 13:16:02;;;;;;;;;;;9.20;99.90;;;;;;5080599;28;19987;-79
2023/01/02 13:18:34;;;;;;;;;;;9.30;99.90;;;;;;5080490;28;19912;-78
2023/01/02 13:20:59;;;;;;;;;;;9.40;99.90;;;;;;5099007;28;19931;-78
2023/01/02 13:23:35;;;;;;;;;;;9.50;99.90;;;;;;5081007;28;20359;-78
2023/01/02 13:26:01;;;;;;;;;;;9.50;99.90;;;;;;5097836;28;19958;-77
2023/01/02 13:28:27;;;;;;;;;;;9.40;99.90;;;;;;5081191;28;19909;-78
2023/01/02 13:30:53;;;;;;;;;;;9.30;99.90;;;;;;5099350;28;20486;-78
2023/01/02 13:33:26;;;;;;;;;;;9.30;99.90;;;;;;5081439;28;19955;-78
2023/01/02 13:35:52;;;;;;;;;;;9.30;99.90;;;;;;5079486;28;19916;-78
2023/01/02 13:38:18;;;;;;;;;;;9.20;99.90;;;;;;5079981;28;19920;-78
2023/01/02 13:40:46;;;;;;;;;;;9.10;99.90;;;;;;5079792;28;19951;-78
2023/01/02 13:43:16;;;;;;;;;;;9.10;99.90;;;;;;5098004;28;20319;-78
2023/01/02 13:45:44;;;;;;;;;;;9.00;99.90;;;;;;5098459;28;19951;-79
2023/01/02 13:48:28;;;;;;;;;;;9.00;99.90;;;;;;5098745;28;19908;-78
2023/01/02 13:51:03;;;;;;;;;;;8.90;99.90;;;;;;5096393;28;19962;-78
2023/01/02 13:53:34;;;;;;;;;;;8.90;99.90;;;;;;5078506;28;19908;-78
2023/01/02 13:56:02;;;;;;;;;;;8.90;99.90;;;;;;5096028;28;19935;-77
2023/01/02 13:58:37;;;;;;;;;;;8.90;99.90;;;;;;5077668;28;19962;-78
2023/01/02 14:01:21;;;;;;;;;;;8.90;99.90;;;;;;5079614;28;20389;-78
2023/01/02 14:03:47;;;;;;;;;;;8.90;99.90;;;;;;5078686;28;19908;-78
2023/01/02 14:06:26;;;;;;;;;;;8.80;99.90;;;;;;5082450;28;19923;-78
2023/01/02 14:09:04;;;;;;;;;;;8.80;99.90;;;;;;5079203;28;20329;-78
2023/01/02 14:11:50;;;;;;;;;;;8.70;99.90;;;;;;5096768;28;19915;-78
2023/01/02 14:14:24;;;;;;;;;;;8.70;99.90;;;;;;5089215;28;20275;-77
2023/01/02 14:17:05;;;;;;;;;;;8.70;99.90;;;;;;5076864;28;19915;-77
2023/01/02 14:19:31;;;;;;;;;;;8.70;99.90;;;;;;5095929;28;19912;-77
2023/01/02 14:21:56;;;;;;;;;;;8.70;99.90;;;;;;5077741;28;20468;-77
2023/01/02 14:24:25;;;;;;;;;;;8.60;99.90;;;;;;5077205;28;19916;-77
2023/01/02 14:26:58;;;;;;;;;;;8.60;99.90;;;;;;5076877;28;19908;-77
2023/01/02 14:29:24;;;;;;;;;;;8.60;99.90;;;;;;5077002;28;19908;-77
2023/01/02 14:31:57;;;;;;;;;;;8.60;99.90;;;;;;5077432;28;19912;-78
2023/01/02 14:34:23;;;;;;;;;;;8.60;99.90;;;;;;5078392;28;19908;-78